Time;durP1;ratioP1;P1;durP2;ratioP2;P2;SDS_P1;SDS_P2;PMS_P1;PMS_P2;Temp;Humidity;BMP_temperature;BMP_pressure;BME280_temperature;BME280_humidity;BME280_pressure;Samples;Min_cycle;Max_cycle;Signal;HPM_P1;HPM_P2
2021/06/08 00:00:38;;;;;;;4.32;3.00;;;18.10;99.90;;;;;;4144177;28;21142;-82
2021/06/08 00:02:39;;;;;;;3.65;2.97;;;18.00;99.90;;;;;;4128542;28;20140;-82
2021/06/08 00:04:40;;;;;;;3.80;3.30;;;18.00;99.90;;;;;;4147858;28;20784;-82
2021/06/08 00:06:40;;;;;;;3.90;3.50;;;18.00;99.90;;;;;;4148078;28;20133;-81
2021/06/08 00:08:41;;;;;;;3.97;3.10;;;17.90;99.90;;;;;;4145695;28;20042;-82
2021/06/08 00:10:41;;;;;;;4.78;3.67;;;17.90;99.90;;;;;;4128774;28;20045;-81
2021/06/08 00:12:42;;;;;;;4.95;3.83;;;17.90;99.90;;;;;;4126328;28;20080;-81
2021/06/08 00:14:43;;;;;;;5.20;4.15;;;17.90;99.90;;;;;;4144586;28;20723;-81
2021/06/08 00:16:44;;;;;;;4.75;3.65;;;17.90;99.90;;;;;;4127794;28;20050;-82
2021/06/08 00:18:44;;;;;;;4.47;3.70;;;17.90;99.90;;;;;;4146675;28;20041;-81
2021/06/08 00:20:45;;;;;;;5.47;4.20;;;17.80;99.90;;;;;;4144695;28;20061;-81
2021/06/08 00:22:46;;;;;;;6.53;4.20;;;17.90;99.90;;;;;;4125611;28;20045;-81
2021/06/08 00:24:46;;;;;;;5.10;3.13;;;17.80;99.90;;;;;;4130642;28;20179;-81
2021/06/08 00:26:47;;;;;;;4.53;3.45;;;17.80;99.90;;;;;;4141725;28;21081;-82
2021/06/08 00:28:48;;;;;;;4.28;3.40;;;17.80;99.90;;;;;;4125808;28;20041;-82
2021/06/08 00:30:48;;;;;;;4.63;3.60;;;17.80;99.90;;;;;;4143429;28;20042;-82
2021/06/08 00:32:49;;;;;;;5.72;3.90;;;17.80;99.90;;;;;;4131778;28;20042;-82
2021/06/08 00:34:50;;;;;;;4.10;3.53;;;17.80;99.90;;;;;;4141096;28;20046;-82
2021/06/08 00:36:51;;;;;;;4.00;3.40;;;17.70;99.90;;;;;;4129157;28;20475;-82
2021/06/08 00:38:51;;;;;;;3.42;3.13;;;17.70;99.90;;;;;;4141515;28;20153;-82
2021/06/08 00:40:52;;;;;;;3.75;3.08;;;17.70;99.90;;;;;;4143028;28;20034;-82
2021/06/08 00:42:54;;;;;;;5.03;3.45;;;17.70;99.90;;;;;;4122981;28;20928;-82
2021/06/08 00:44:54;;;;;;;3.97;3.58;;;17.70;99.90;;;;;;4145780;28;20517;-82
2021/06/08 00:46:56;;;;;;;7.47;3.45;;;17.70;99.90;;;;;;4142450;28;20048;-82
2021/06/08 00:48:57;;;;;;;4.30;3.60;;;17.70;99.90;;;;;;4127725;28;20034;-82
2021/06/08 00:50:57;;;;;;;4.05;3.50;;;17.70;99.90;;;;;;4125191;28;20880;-82
2021/06/08 00:52:58;;;;;;;4.80;3.72;;;17.60;99.90;;;;;;4141242;28;20121;-82
2021/06/08 00:54:59;;;;;;;5.05;4.00;;;17.60;99.90;;;;;;4126220;28;20138;-81
2021/06/08 00:56:59;;;;;;;5.60;4.07;;;17.60;99.90;;;;;;4127538;28;20050;-82
2021/06/08 00:59:00;;;;;;;4.88;4.07;;;17.60;99.90;;;;;;4142024;28;20030;-81
2021/06/08 01:01:01;;;;;;;4.22;3.83;;;17.50;99.90;;;;;;4127136;28;20454;-81
2021/06/08 01:03:03;;;;;;;5.03;3.90;;;17.60;99.90;;;;;;4146112;28;20026;-82
2021/06/08 01:05:06;;;;;;;6.28;4.43;;;17.60;99.90;;;;;;4148014;28;20073;-81
2021/06/08 01:07:07;;;;;;;4.95;4.10;;;17.50;99.90;;;;;;4126521;28;20034;-81
2021/06/08 01:09:08;;;;;;;6.63;4.30;;;17.50;99.90;;;;;;4144453;28;20034;-82
2021/06/08 01:11:09;;;;;;;4.88;4.18;;;17.50;99.90;;;;;;4121975;28;20053;-82
2021/06/08 01:13:09;;;;;;;6.28;4.50;;;17.50;99.90;;;;;;4127493;28;20041;-82
2021/06/08 01:15:10;;;;;;;5.07;4.00;;;17.40;99.90;;;;;;4145722;28;20301;-82
2021/06/08 01:17:11;;;;;;;4.88;4.20;;;17.40;99.90;;;;;;4126311;28;20044;-82
2021/06/08 01:19:11;;;;;;;5.55;4.40;;;17.40;99.90;;;;;;4144552;28;20041;-82
2021/06/08 01:21:13;;;;;;;10.43;4.13;;;17.40;99.90;;;;;;4141467;28;20036;-82
2021/06/08 01:23:13;;;;;;;5.25;4.05;;;17.30;99.90;;;;;;4143160;28;20574;-82
2021/06/08 01:25:14;;;;;;;5.15;4.35;;;17.30;99.90;;;;;;4126632;28;20066;-82
2021/06/08 01:27:15;;;;;;;4.57;4.07;;;17.20;99.90;;;;;;4141137;28;20699;-82
2021/06/08 01:29:18;;;;;;;5.15;4.25;;;17.20;99.90;;;;;;4144720;28;20038;-82
2021/06/08 01:31:22;;;;;;;4.35;3.92;;;17.20;99.90;;;;;;4132944;28;20086;-82
2021/06/08 01:33:25;;;;;;;5.05;4.32;;;17.20;99.90;;;;;;4147232;28;20117;-82
2021/06/08 01:35:28;;;;;;;;;;;17.20;99.90;;;;;;4145167;28;20029;-82
2021/06/08 01:37:28;;;;;;;7.47;4.55;;;17.20;99.90;;;;;;4123615;28;20564;-82
2021/06/08 01:39:31;;;;;;;5.10;3.90;;;17.20;99.90;;;;;;4143210;28;20034;-81
2021/06/08 01:41:33;;;;;;;5.00;4.22;;;17.20;99.90;;;;;;4141651;28;20038;-81
2021/06/08 01:43:34;;;;;;;6.93;3.97;;;17.10;99.90;;;;;;4143672;28;20041;-81
2021/06/08 01:45:35;;;;;;;4.82;3.90;;;17.10;99.90;;;;;;4124645;28;20542;-82
2021/06/08 01:47:36;;;;;;;3.80;3.40;;;17.10;99.90;;;;;;4146731;28;20045;-82
2021/06/08 01:49:37;;;;;;;6.68;3.75;;;17.10;99.90;;;;;;4125485;28;20089;-82
2021/06/08 01:51:48;;;;;;;5.82;4.30;;;17.10;99.90;;;;;;4140534;28;20128;-82
2021/06/08 01:54:03;;;;;;;4.30;3.70;;;17.10;99.90;;;;;;4127612;28;20053;-82
2021/06/08 01:56:09;;;;;;;7.35;4.20;;;17.10;99.90;;;;;;4140893;28;20034;-82
2021/06/08 01:58:24;;;;;;;5.15;4.18;;;17.00;99.90;;;;;;4123076;28;20446;-82
2021/06/08 02:00:39;;;;;;;4.60;4.03;;;17.00;99.90;;;;;;4145565;28;20040;-82
2021/06/08 02:03:07;;;;;;;5.03;3.72;;;17.00;99.90;;;;;;4124896;28;20490;-81
2021/06/08 02:05:47;;;;;;;4.25;3.53;;;17.00;99.90;;;;;;4144542;28;20073;-81
2021/06/08 02:08:26;;;;;;;4.47;3.55;;;17.00;99.90;;;;;;4124961;28;20040;-81
2021/06/08 02:10:40;;;;;;;4.28;3.88;;;17.00;99.90;;;;;;4137291;28;20109;-82
2021/06/08 02:12:47;;;;;;;7.20;4.18;;;17.00;99.90;;;;;;4140989;28;20034;-81
2021/06/08 02:15:01;;;;;;;4.65;3.92;;;16.90;99.90;;;;;;4142394;28;20038;-82
2021/06/08 02:17:13;;;;;;;5.00;4.00;;;16.90;99.90;;;;;;4140685;28;20034;-82
2021/06/08 02:19:16;;;;;;;4.45;3.83;;;16.90;99.90;;;;;;4125596;28;20038;-82
2021/06/08 02:21:26;;;;;;;5.75;4.18;;;16.90;99.90;;;;;;4126314;28;20081;-81
2021/06/08 02:23:28;;;;;;;7.55;4.03;;;16.80;99.90;;;;;;4127029;28;20471;-81
2021/06/08 02:25:31;;;;;;;5.03;3.97;;;16.80;99.90;;;;;;4139935;28;20679;-81
2021/06/08 02:27:33;;;;;;;4.53;3.80;;;16.80;99.90;;;;;;4125853;28;20039;-81
2021/06/08 02:29:35;;;;;;;3.93;3.53;;;16.70;99.90;;;;;;4126787;28;20038;-81
2021/06/08 02:31:40;;;;;;;7.70;3.72;;;16.70;99.90;;;;;;4142423;28;20139;-81
2021/06/08 02:33:41;;;;;;;5.45;4.13;;;16.70;99.90;;;;;;4124293;28;20030;-81
2021/06/08 02:35:42;;;;;;;5.57;4.22;;;16.70;99.90;;;;;;4140555;28;20438;-82
2021/06/08 02:37:44;;;;;;;5.68;3.60;;;16.70;99.90;;;;;;4123663;28;20092;-82
2021/06/08 02:39:46;;;;;;;4.50;3.67;;;16.70;99.90;;;;;;4125569;28;20046;-82
2021/06/08 02:41:48;;;;;;;4.65;3.72;;;16.70;99.90;;;;;;4142471;28;20117;-81
2021/06/08 02:43:51;;;;;;;6.18;3.60;;;16.60;99.90;;;;;;4141472;28;20128;-82
2021/06/08 02:45:52;;;;;;;4.65;3.78;;;16.60;99.90;;;;;;4122308;28;20081;-81
2021/06/08 02:47:54;;;;;;;5.18;3.60;;;16.60;99.90;;;;;;4163611;28;20037;-82
2021/06/08 02:49:55;;;;;;;8.10;3.97;;;16.60;99.90;;;;;;4146169;28;20040;-82
2021/06/08 02:51:57;;;;;;;4.63;3.78;;;16.70;99.90;;;;;;4128202;28;20039;-82
2021/06/08 02:53:58;;;;;;;4.03;3.38;;;16.60;99.90;;;;;;4149124;28;20058;-82
2021/06/08 02:55:59;;;;;;;4.85;3.95;;;16.60;99.90;;;;;;4133813;28;20282;-82
2021/06/08 02:58:01;;;;;;;4.28;3.20;;;16.60;99.90;;;;;;4146608;28;20045;-82
2021/06/08 03:00:07;;;;;;;6.25;3.55;;;16.60;99.90;;;;;;4129597;28;20430;-82
2021/06/08 03:02:12;;;;;;;5.80;3.97;;;16.60;99.90;;;;;;4128378;28;20121;-81
2021/06/08 03:04:15;;;;;;;5.40;3.63;;;16.60;99.90;;;;;;4130393;28;20046;-81
2021/06/08 03:06:27;;;;;;;4.15;3.67;;;16.60;99.90;;;;;;4131392;28;20355;-82
2021/06/08 03:08:36;;;;;;;3.80;3.25;;;16.60;99.90;;;;;;4146204;28;20516;-82
2021/06/08 03:10:38;;;;;;;3.88;3.47;;;16.60;99.90;;;;;;4128418;28;20050;-82
2021/06/08 03:12:46;;;;;;;6.35;3.80;;;16.60;99.90;;;;;;4146200;28;20057;-82
2021/06/08 03:14:48;;;;;;;3.40;3.10;;;16.60;99.90;;;;;;4128118;28;20066;-82
2021/06/08 03:16:55;;;;;;;5.93;3.90;;;16.50;99.90;;;;;;4132599;28;20038;-82
2021/06/08 03:19:00;;;;;;;5.43;3.75;;;16.50;99.90;;;;;;4145347;28;20040;-82
2021/06/08 03:21:02;;;;;;;5.03;3.60;;;16.50;99.90;;;;;;4146266;28;20113;-82
2021/06/08 03:23:06;;;;;;;5.47;3.37;;;16.50;99.90;;;;;;4144606;28;20034;-81
2021/06/08 03:25:08;;;;;;;7.97;3.75;;;16.50;99.90;;;;;;4144671;28;20067;-82
2021/06/08 03:27:10;;;;;;;4.43;3.95;;;16.50;99.90;;;;;;4148925;28;20034;-82
2021/06/08 03:29:12;;;;;;;3.60;3.00;;;16.50;99.90;;;;;;4144789;28;20143;-81
2021/06/08 03:31:14;;;;;;;4.22;3.45;;;16.50;99.90;;;;;;4130439;28;20274;-82
2021/06/08 03:33:17;;;;;;;6.25;4.05;;;16.50;99.90;;;;;;4145157;28;20495;-82
2021/06/08 03:35:23;;;;;;;6.32;4.05;;;16.50;99.90;;;;;;4126468;28;20042;-81
2021/06/08 03:37:25;;;;;;;7.15;4.15;;;16.50;99.90;;;;;;4145350;28;20410;-82
2021/06/08 03:39:27;;;;;;;5.85;3.75;;;16.40;99.90;;;;;;4144828;28;20030;-82
2021/06/08 03:41:28;;;;;;;7.38;4.25;;;16.40;99.90;;;;;;4129211;28;20806;-82
2021/06/08 03:43:29;;;;;;;5.03;3.92;;;16.30;99.90;;;;;;4129940;28;20398;-82
2021/06/08 03:45:30;;;;;;;4.78;3.60;;;16.30;99.90;;;;;;4146225;28;20482;-82
2021/06/08 03:47:31;;;;;;;6.47;4.03;;;16.30;99.90;;;;;;4127946;28;20026;-81
2021/06/08 03:49:33;;;;;;;6.78;4.78;;;16.20;99.90;;;;;;4129312;28;20037;-81
2021/06/08 03:51:34;;;;;;;4.47;3.80;;;16.20;99.90;;;;;;4143069;28;20089;-81
2021/06/08 03:53:38;;;;;;;5.32;4.30;;;16.10;99.90;;;;;;4127703;28;20519;-81
2021/06/08 03:55:39;;;;;;;5.18;4.40;;;16.20;99.90;;;;;;4143360;28;20035;-82
2021/06/08 03:57:44;;;;;;;7.25;4.65;;;16.10;99.90;;;;;;4125302;28;20270;-81
2021/06/08 03:59:45;;;;;;;5.18;4.13;;;16.00;99.90;;;;;;4143897;28;20510;-82
2021/06/08 04:01:49;;;;;;;8.73;4.50;;;16.10;99.90;;;;;;4127025;28;20038;-82
2021/06/08 04:03:51;;;;;;;6.00;4.40;;;16.10;99.90;;;;;;4127169;28;20093;-81
2021/06/08 04:05:54;;;;;;;4.67;4.17;;;16.10;99.90;;;;;;4124110;28;20038;-81
2021/06/08 04:07:55;;;;;;;5.57;4.20;;;16.10;99.90;;;;;;4124470;28;20479;-82
2021/06/08 04:09:55;;;;;;;4.65;3.97;;;16.10;99.90;;;;;;4128078;28;20046;-82
2021/06/08 04:11:56;;;;;;;5.15;4.45;;;16.10;99.90;;;;;;4128149;28;20034;-81
2021/06/08 04:13:57;;;;;;;4.53;3.83;;;16.00;99.90;;;;;;4143789;28;20041;-81
2021/06/08 04:15:59;;;;;;;7.18;4.18;;;16.10;99.90;;;;;;4127333;28;20038;-81
2021/06/08 04:18:01;;;;;;;5.63;4.70;;;16.10;99.90;;;;;;4142347;28;20085;-81
2021/06/08 04:20:04;;;;;;;6.63;4.78;;;16.10;99.90;;;;;;4129809;28;20030;-81
2021/06/08 04:22:05;;;;;;;6.50;4.72;;;16.10;99.90;;;;;;4145826;28;20026;-81
2021/06/08 04:24:06;;;;;;;5.82;4.10;;;16.10;99.90;;;;;;4134785;28;20130;-81
2021/06/08 04:26:07;;;;;;;4.72;4.05;;;16.10;99.90;;;;;;4148946;28;20169;-81
2021/06/08 04:28:08;;;;;;;6.15;4.05;;;16.10;99.90;;;;;;4150257;28;20403;-81
2021/06/08 04:30:09;;;;;;;5.18;4.25;;;16.10;99.90;;;;;;4134898;28;20054;-81
2021/06/08 04:32:10;;;;;;;4.72;4.10;;;16.20;99.90;;;;;;4147803;28;20089;-81
2021/06/08 04:34:11;;;;;;;6.15;4.25;;;16.10;99.90;;;;;;4134199;28;20038;-81
2021/06/08 04:36:13;;;;;;;4.57;4.10;;;16.20;99.90;;;;;;4148641;28;20363;-81
2021/06/08 04:38:15;;;;;;;7.15;4.47;;;16.20;99.90;;;;;;4131225;28;20499;-81
2021/06/08 04:40:17;;;;;;;7.63;5.03;;;16.30;99.90;;;;;;4131506;28;20195;-82
2021/06/08 04:42:19;;;;;;;4.85;4.00;;;16.30;99.90;;;;;;4136829;28;20469;-81
2021/06/08 04:44:21;;;;;;;5.13;4.32;;;16.30;99.90;;;;;;4135058;28;20087;-81
2021/06/08 04:46:21;;;;;;;6.90;4.47;;;16.30;99.90;;;;;;4133850;28;20100;-82
2021/06/08 04:48:28;;;;;;;6.95;4.85;;;16.30;99.90;;;;;;4137370;28;20289;-82
2021/06/08 04:50:28;;;;;;;6.03;4.93;;;16.30;99.90;;;;;;4130055;28;20038;-81
2021/06/08 04:52:29;;;;;;;7.20;4.95;;;16.40;99.90;;;;;;4149945;28;20034;-81
2021/06/08 04:54:30;;;;;;;5.70;4.20;;;16.30;99.90;;;;;;4131657;28;20034;-81
2021/06/08 04:56:33;;;;;;;6.50;4.90;;;16.40;99.90;;;;;;4132886;28;20053;-81
2021/06/08 04:58:37;;;;;;;6.78;4.85;;;16.40;99.90;;;;;;4148110;28;20501;-83
2021/06/08 05:01:00;;;;;;;5.88;4.93;;;16.40;99.90;;;;;;4152783;28;20366;-82
2021/06/08 05:03:09;;;;;;;7.88;4.93;;;16.40;99.90;;;;;;4114593;28;20061;-82
2021/06/08 05:05:17;;;;;;;5.80;4.95;;;16.40;99.90;;;;;;4144206;28;20038;-79
2021/06/08 05:07:21;;;;;;;5.95;4.68;;;16.40;99.90;;;;;;4146827;28;20034;-79
2021/06/08 05:09:25;;;;;;;7.00;4.53;;;16.40;99.90;;;;;;4146600;28;20146;-79
2021/06/08 05:11:35;;;;;;;5.80;4.95;;;16.40;99.90;;;;;;4149067;28;20056;-79
2021/06/08 05:13:37;;;;;;;5.57;4.50;;;16.50;99.90;;;;;;4145492;28;20053;-79
2021/06/08 05:15:39;;;;;;;6.13;4.82;;;16.50;99.90;;;;;;4131352;28;20518;-79
2021/06/08 05:17:40;;;;;;;6.30;4.60;;;16.60;99.90;;;;;;4147232;28;20057;-79
2021/06/08 05:19:42;;;;;;;5.70;4.53;;;16.60;99.90;;;;;;4146328;28;20037;-79
2021/06/08 05:21:44;;;;;;;6.90;5.18;;;16.60;99.90;;;;;;4144756;28;20522;-80
2021/06/08 05:23:45;;;;;;;6.38;5.35;;;16.70;99.90;;;;;;4135077;28;20061;-80
2021/06/08 05:25:51;;;;;;;6.60;5.00;;;16.70;99.90;;;;;;4150336;28;20060;-80
2021/06/08 05:27:52;;;;;;;6.75;4.93;;;16.70;99.90;;;;;;4147780;28;20036;-80
2021/06/08 05:29:54;;;;;;;7.45;5.38;;;16.70;99.90;;;;;;4147128;28;20113;-80
2021/06/08 05:31:58;;;;;;;9.02;5.22;;;16.70;99.90;;;;;;4143390;28;20029;-80
2021/06/08 05:34:01;;;;;;;9.98;4.88;;;16.80;99.90;;;;;;4147871;28;20026;-80
2021/06/08 05:36:02;;;;;;;8.40;5.70;;;16.80;99.90;;;;;;4117173;28;20490;-80
2021/06/08 05:38:07;;;;;;;6.88;5.25;;;16.80;99.90;;;;;;4146649;28;20524;-80
2021/06/08 05:40:09;;;;;;;6.75;4.85;;;16.90;99.90;;;;;;4143644;28;20060;-80
2021/06/08 05:42:15;;;;;;;7.10;5.47;;;16.90;99.90;;;;;;4150348;28;20030;-81
2021/06/08 05:44:15;;;;;;;7.85;5.93;;;17.00;99.90;;;;;;4139573;28;20361;-80
2021/06/08 05:46:16;;;;;;;6.47;5.47;;;17.10;99.90;;;;;;4145286;28;20085;-79
2021/06/08 05:48:21;;;;;;;7.22;5.57;;;17.10;99.90;;;;;;4145157;28;20037;-79
2021/06/08 05:50:22;;;;;;;7.00;5.95;;;17.30;99.90;;;;;;4147952;28;21959;-80
2021/06/08 05:52:23;;;;;;;8.07;5.65;;;17.60;99.90;;;;;;4151267;28;20044;-80
2021/06/08 05:54:26;;;;;;;7.53;5.63;;;18.00;99.90;;;;;;4148295;28;20148;-80
2021/06/08 05:56:33;;;;;;;9.52;6.00;;;18.30;99.90;;;;;;4140155;28;20056;-80
2021/06/08 05:58:35;;;;;;;7.45;4.78;;;18.70;99.90;;;;;;4144003;28;20041;-80
2021/06/08 06:00:36;;;;;;;7.17;5.30;;;19.10;99.90;;;;;;4149127;28;20719;-79
2021/06/08 06:02:39;;;;;;;7.03;4.57;;;19.50;99.90;;;;;;4145054;28;20493;-80
2021/06/08 06:04:43;;;;;;;5.72;4.45;;;19.90;99.90;;;;;;4145996;28;20042;-80
2021/06/08 06:06:45;;;;;;;6.22;4.40;;;20.30;99.90;;;;;;4142038;28;20494;-80
2021/06/08 06:08:47;;;;;;;10.55;4.93;;;20.70;99.90;;;;;;4143203;28;20030;-80
2021/06/08 06:10:48;;;;;;;6.82;4.50;;;21.10;99.90;;;;;;4145070;28;20046;-81
2021/06/08 06:12:52;;;;;;;8.60;4.78;;;21.40;99.90;;;;;;4125601;28;20117;-81
2021/06/08 06:15:02;;;;;;;7.13;4.88;;;21.70;99.90;;;;;;4138566;28;20787;-81
2021/06/08 06:17:07;;;;;;;5.78;4.72;;;22.00;99.90;;;;;;4144627;28;20042;-81
2021/06/08 06:19:10;;;;;;;6.07;4.43;;;22.20;99.90;;;;;;4148217;28;20041;-81
2021/06/08 06:21:12;;;;;;;4.90;4.20;;;22.40;99.90;;;;;;4148297;28;20025;-81
2021/06/08 06:23:24;;;;;;;5.22;4.15;;;22.60;99.90;;;;;;4146053;28;20367;-81
2021/06/08 06:25:25;;;;;;;10.02;5.35;;;22.90;99.90;;;;;;4146871;28;20097;-81
2021/06/08 06:27:26;;;;;;;7.30;4.30;;;22.90;99.90;;;;;;4147302;28;20045;-81
2021/06/08 06:29:27;;;;;;;5.83;4.40;;;22.90;99.90;;;;;;4129521;28;20117;-81
2021/06/08 06:31:29;;;;;;;6.25;4.20;;;23.00;99.90;;;;;;4143260;28;20087;-81
2021/06/08 06:33:30;;;;;;;6.53;4.18;;;23.00;99.90;;;;;;4142722;28;20045;-81
2021/06/08 06:35:34;;;;;;;6.07;4.38;;;23.00;99.90;;;;;;4146912;28;20042;-81
2021/06/08 06:37:36;;;;;;;8.85;4.85;;;23.00;99.90;;;;;;4145791;28;20511;-81
2021/06/08 06:39:40;;;;;;;6.90;4.90;;;23.00;99.90;;;;;;4143167;28;20093;-80
2021/06/08 06:41:42;;;;;;;11.57;5.53;;;23.00;99.90;;;;;;4142793;28;20069;-81
2021/06/08 06:43:49;;;;;;;8.55;5.78;;;23.00;99.90;;;;;;4143286;28;20038;-81
2021/06/08 06:45:52;;;;;;;6.50;4.75;;;23.00;99.90;;;;;;4141988;28;20033;-81
2021/06/08 06:47:54;;;;;;;;;;;23.00;99.90;;;;;;4146670;28;20061;-82
2021/06/08 06:49:55;;;;;;;6.60;4.60;;;22.90;99.90;;;;;;4143689;28;19913;-81
2021/06/08 06:52:04;;;;;;;8.00;5.72;;;22.80;99.90;;;;;;4145154;28;20107;-81
2021/06/08 06:54:09;;;;;;;7.95;5.60;;;22.80;99.90;;;;;;4146734;28;20493;-81
2021/06/08 06:56:17;;;;;;;7.63;5.82;;;22.80;99.90;;;;;;4150190;28;20029;-82
2021/06/08 06:58:20;;;;;;;8.55;6.53;;;22.70;99.90;;;;;;4142411;28;20041;-82
2021/06/08 07:00:25;;;;;;;8.32;5.78;;;22.70;99.90;;;;;;4148432;28;20061;-81
2021/06/08 07:02:26;;;;;;;8.18;6.13;;;22.60;99.90;;;;;;4146469;28;20072;-81
2021/06/08 07:04:27;;;;;;;10.57;7.63;;;22.60;99.90;;;;;;4149482;28;20054;-81
2021/06/08 07:06:31;;;;;;;15.00;7.80;;;22.50;99.90;;;;;;4147689;28;20141;-80
2021/06/08 07:08:33;;;;;;;10.68;6.75;;;22.30;99.90;;;;;;4149812;28;20045;-81
2021/06/08 07:10:34;;;;;;;8.77;6.82;;;22.30;99.90;;;;;;4140843;28;20038;-80
2021/06/08 07:12:35;;;;;;;10.40;6.90;;;22.30;99.90;;;;;;4146896;28;20073;-81
2021/06/08 07:14:36;;;;;;;9.13;6.78;;;22.20;99.90;;;;;;4146564;28;20026;-80
2021/06/08 07:16:36;;;;;;;8.15;6.80;;;22.10;99.90;;;;;;4148561;28;20037;-80
2021/06/08 07:18:39;;;;;;;9.20;7.30;;;22.00;99.90;;;;;;4153280;28;20052;-80
2021/06/08 07:20:40;;;;;;;14.05;8.82;;;21.90;99.90;;;;;;4144697;28;20041;-80
2021/06/08 07:22:43;;;;;;;13.27;8.55;;;21.80;99.90;;;;;;4142507;28;20027;-81
2021/06/08 07:24:44;;;;;;;13.27;8.50;;;21.70;99.90;;;;;;4148392;28;20041;-80
2021/06/08 07:26:47;;;;;;;13.20;9.48;;;21.70;99.90;;;;;;4146447;28;20621;-81
2021/06/08 07:28:48;;;;;;;14.20;9.70;;;21.60;99.90;;;;;;4151878;28;20038;-80
2021/06/08 07:30:50;;;;;;;14.35;9.52;;;21.60;99.90;;;;;;4147583;28;20041;-81
2021/06/08 07:33:12;;;;;;;14.73;9.67;;;21.50;99.90;;;;;;4148717;28;20128;-80
2021/06/08 07:35:27;;;;;;;15.48;10.73;;;21.40;99.90;;;;;;4149014;28;20871;-80
2021/06/08 07:37:33;;;;;;;14.88;10.88;;;21.40;99.90;;;;;;4145877;28;20042;-81
2021/06/08 07:39:46;;;;;;;15.70;11.25;;;21.30;99.90;;;;;;4145341;28;20034;-80
2021/06/08 07:42:12;;;;;;;12.98;9.75;;;21.40;99.90;;;;;;4141379;28;20034;-80
2021/06/08 07:44:22;;;;;;;17.05;9.45;;;21.30;99.90;;;;;;4146928;28;20402;-80
2021/06/08 07:46:25;;;;;;;14.27;10.57;;;21.30;99.90;;;;;;4130086;28;20133;-80
2021/06/08 07:48:27;;;;;;;14.27;10.77;;;21.30;99.90;;;;;;4148333;28;20037;-80
2021/06/08 07:50:33;;;;;;;;;;;21.30;99.90;;;;;;4146968;28;20034;-80
2021/06/08 07:52:35;;;;;;;17.40;11.65;;;21.30;99.90;;;;;;4130521;28;19914;-80
2021/06/08 07:54:37;;;;;;;11.25;9.77;;;21.20;99.90;;;;;;4155401;28;20033;-80
2021/06/08 07:56:39;;;;;;;13.82;9.95;;;21.20;99.90;;;;;;4143650;28;20040;-81
2021/06/08 07:58:41;;;;;;;12.80;9.90;;;21.30;99.90;;;;;;4148305;28;20070;-80
2021/06/08 08:00:42;;;;;;;12.68;9.10;;;21.20;99.90;;;;;;4148888;28;20080;-80
2021/06/08 08:02:46;;;;;;;15.73;10.57;;;21.30;99.90;;;;;;4152073;28;20390;-80
2021/06/08 08:04:50;;;;;;;12.82;9.15;;;21.30;99.90;;;;;;4150559;28;20049;-80
2021/06/08 08:06:53;;;;;;;15.18;9.75;;;21.20;99.90;;;;;;4145981;28;20771;-80
2021/06/08 08:08:54;;;;;;;11.88;8.95;;;21.20;99.90;;;;;;4143679;28;22597;-81
2021/06/08 08:10:55;;;;;;;11.68;8.32;;;21.20;99.90;;;;;;4141815;28;20525;-80
2021/06/08 08:13:15;;;;;;;10.70;7.50;;;21.20;99.90;;;;;;4093144;28;20068;-80
2021/06/08 08:15:17;;;;;;;10.05;8.02;;;21.10;99.90;;;;;;4130522;28;20046;-80
2021/06/08 08:17:25;;;;;;;10.10;7.78;;;21.20;99.90;;;;;;4127465;28;20141;-80
2021/06/08 08:19:26;;;;;;;10.40;7.57;;;21.30;99.90;;;;;;4144334;28;20113;-80
2021/06/08 08:21:27;;;;;;;10.45;7.22;;;21.20;99.90;;;;;;4148096;28;20100;-79
2021/06/08 08:23:31;;;;;;;8.73;5.95;;;21.30;99.90;;;;;;4146631;28;20041;-80
2021/06/08 08:25:38;;;;;;;11.38;6.78;;;21.30;99.90;;;;;;4146744;28;20032;-80
2021/06/08 08:27:38;;;;;;;7.57;5.38;;;21.30;99.90;;;;;;4142719;28;20045;-81
2021/06/08 08:29:44;;;;;;;10.20;6.72;;;21.30;99.90;;;;;;4144382;28;20097;-80
2021/06/08 08:31:47;;;;;;;12.70;7.13;;;21.40;99.90;;;;;;4146752;28;20041;-80
2021/06/08 08:33:55;;;;;;;;;;;21.40;99.90;;;;;;4126076;28;20037;-81
2021/06/08 08:35:57;;;;;;;9.68;6.85;;;21.50;99.90;;;;;;4144955;28;19965;-80
2021/06/08 08:37:57;;;;;;;9.17;6.47;;;21.60;99.90;;;;;;4147581;28;20022;-80
2021/06/08 08:40:07;;;;;;;10.90;6.90;;;21.60;99.90;;;;;;4150297;28;20056;-80
2021/06/08 08:42:08;;;;;;;12.43;7.00;;;21.60;99.90;;;;;;4147335;28;20032;-80
2021/06/08 08:44:10;;;;;;;7.47;5.30;;;21.70;99.90;;;;;;4147760;28;20045;-80
2021/06/08 08:46:12;;;;;;;12.60;5.97;;;21.80;99.90;;;;;;4126342;28;20035;-80
2021/06/08 08:48:14;;;;;;;9.48;6.32;;;21.80;99.90;;;;;;4143696;28;20335;-80
2021/06/08 08:50:17;;;;;;;12.20;7.25;;;21.90;99.90;;;;;;4138650;28;20684;-80
2021/06/08 08:52:20;;;;;;;13.77;9.40;;;22.00;99.90;;;;;;4146105;28;20102;-80
2021/06/08 08:54:21;;;;;;;11.35;7.90;;;22.00;99.90;;;;;;4146783;28;20125;-80
2021/06/08 08:56:36;;;;;;;12.75;6.30;;;22.00;99.90;;;;;;4145276;28;20274;-80
2021/06/08 08:58:38;;;;;;;7.82;5.80;;;22.20;99.90;;;;;;4140123;28;20052;-80
2021/06/08 09:00:45;;;;;;;8.85;5.53;;;22.20;99.90;;;;;;4147829;28;20056;-81
2021/06/08 09:02:46;;;;;;;9.30;5.93;;;22.30;99.90;;;;;;4144957;28;20049;-80
2021/06/08 09:04:47;;;;;;;10.80;6.28;;;22.30;99.90;;;;;;4130182;28;20046;-80
2021/06/08 09:06:48;;;;;;;15.85;5.50;;;22.40;99.90;;;;;;4143043;28;20355;-80
2021/06/08 09:08:49;;;;;;;11.00;6.57;;;22.50;99.90;;;;;;4141904;28;20042;-81
2021/06/08 09:10:52;;;;;;;6.97;5.35;;;22.60;99.90;;;;;;4149305;28;20076;-81
2021/06/08 09:12:53;;;;;;;8.88;5.85;;;22.70;99.90;;;;;;4130495;28;20044;-81
2021/06/08 09:14:54;;;;;;;8.57;5.95;;;22.70;99.90;;;;;;4142234;28;20052;-80
2021/06/08 09:16:56;;;;;;;6.47;5.70;;;22.80;99.90;;;;;;4141860;28;20065;-80
2021/06/08 09:19:04;;;;;;;7.80;6.27;;;22.80;99.90;;;;;;4142791;28;20106;-80
2021/06/08 09:21:12;;;;;;;9.30;7.43;;;22.80;99.90;;;;;;4131390;28;20053;-80
2021/06/08 09:23:13;;;;;;;12.05;7.90;;;22.80;99.90;;;;;;4141883;28;20126;-80
2021/06/08 09:25:14;;;;;;;11.82;7.78;;;22.70;99.90;;;;;;4145162;28;20108;-80
2021/06/08 09:27:14;;;;;;;8.93;6.47;;;22.60;99.90;;;;;;4128875;28;20033;-81
2021/06/08 09:29:39;;;;;;;11.18;7.63;;;22.60;99.90;;;;;;4143073;28;20039;-80
2021/06/08 09:31:41;;;;;;;9.57;6.78;;;22.50;99.90;;;;;;4141169;28;20037;-80
2021/06/08 09:33:42;;;;;;;9.23;6.78;;;22.40;99.90;;;;;;4144111;28;20030;-80
2021/06/08 09:35:52;;;;;;;8.00;5.97;;;22.40;99.90;;;;;;4142464;28;20061;-80
2021/06/08 09:37:53;;;;;;;8.93;6.13;;;22.40;99.90;;;;;;4144051;28;20030;-80
2021/06/08 09:39:54;;;;;;;8.63;5.93;;;22.40;99.90;;;;;;4147677;28;20026;-80
2021/06/08 09:42:19;;;;;;;10.57;7.10;;;22.50;99.90;;;;;;4128160;28;20038;-81
2021/06/08 09:44:20;;;;;;;6.60;5.43;;;22.50;99.90;;;;;;4128611;28;20042;-80
2021/06/08 09:46:21;;;;;;;6.60;5.65;;;22.60;99.90;;;;;;4145077;28;20117;-81
2021/06/08 09:48:23;;;;;;;8.00;5.32;;;22.70;99.90;;;;;;4128744;28;20332;-81
2021/06/08 09:50:28;;;;;;;7.50;5.65;;;22.80;99.90;;;;;;4144933;28;20037;-81
2021/06/08 09:52:29;;;;;;;6.47;5.75;;;22.80;99.90;;;;;;4145342;28;20113;-81
2021/06/08 09:54:39;;;;;;;9.95;6.15;;;22.90;99.90;;;;;;4141021;28;20085;-80
2021/06/08 09:56:41;;;;;;;7.70;5.15;;;22.90;99.90;;;;;;4124894;28;20315;-81
2021/06/08 09:58:47;;;;;;;7.05;5.82;;;22.90;99.90;;;;;;4145119;28;20072;-80
2021/06/08 10:01:21;;;;;;;9.23;6.43;;;23.00;99.90;;;;;;4146206;28;20045;-81
2021/06/08 10:03:37;;;;;;;7.80;6.38;;;23.00;99.90;;;;;;4135255;28;20033;-81
2021/06/08 10:05:38;;;;;;;11.20;6.75;;;23.00;99.90;;;;;;4146905;28;20084;-81
2021/06/08 10:07:38;;;;;;;9.57;7.18;;;23.00;99.90;;;;;;4140544;28;20021;-80
2021/06/08 10:09:39;;;;;;;9.10;7.35;;;23.00;99.90;;;;;;4149930;28;20038;-81
2021/06/08 10:11:41;;;;;;;10.88;7.15;;;23.00;99.90;;;;;;4145749;28;20033;-80
2021/06/08 10:13:42;;;;;;;8.73;6.78;;;23.00;99.90;;;;;;4143163;28;20066;-80
2021/06/08 10:16:00;;;;;;;8.27;6.45;;;23.00;99.90;;;;;;4142146;28;20029;-81
2021/06/08 10:18:02;;;;;;;7.82;6.25;;;23.10;99.90;;;;;;4144764;28;20506;-81
2021/06/08 10:20:23;;;;;;;7.07;5.60;;;23.10;99.90;;;;;;4132794;28;20038;-80
2021/06/08 10:22:31;;;;;;;5.55;5.00;;;23.10;99.90;;;;;;4142351;28;20046;-81
2021/06/08 10:24:32;;;;;;;7.78;6.05;;;23.20;99.90;;;;;;4141411;28;20034;-80
2021/06/08 10:26:35;;;;;;;7.03;6.03;;;23.30;99.90;;;;;;4147080;28;20026;-80
2021/06/08 10:28:35;;;;;;;;;;;23.40;99.90;;;;;;4145544;28;20038;-80
2021/06/08 10:30:40;;;;;;;6.63;5.72;;;23.40;99.90;;;;;;4142476;28;19914;-80
2021/06/08 10:32:41;;;;;;;9.55;4.88;;;23.50;99.90;;;;;;4141057;28;20229;-80
2021/06/08 10:34:44;;;;;;;8.10;6.40;;;23.60;99.90;;;;;;4158194;28;20052;-81
2021/06/08 10:36:44;;;;;;;;;;;23.60;99.90;;;;;;4145711;28;20089;-80
2021/06/08 10:38:46;;;;;;;9.57;6.45;;;23.70;99.90;;;;;;4146251;28;20393;-80
2021/06/08 10:40:54;;;;;;;5.88;4.70;;;23.80;99.90;;;;;;4148180;28;20395;-80
2021/06/08 10:42:56;;;;;;;5.90;4.60;;;23.80;99.90;;;;;;4147079;28;20382;-80